Time;durP1;ratioP1;P1;durP2;ratioP2;P2;SDS_P1;SDS_P2;PMS_P1;PMS_P2;Temp;Humidity;BMP_temperature;BMP_pressure;BME280_temperature;BME280_humidity;BME280_pressure;Samples;Min_cycle;Max_cycle;Signal;HPM_P1;HPM_P2
2024/01/14 00:00:56;;;;;;;12.37;4.23;;;;;;;3.45;100.00;100221.97;5087353;28;20039;-67
2024/01/14 00:03:22;;;;;;;12.73;4.07;;;;;;;3.47;100.00;100209.91;5094960;28;20036;-71
2024/01/14 00:05:47;;;;;;;11.68;3.90;;;;;;;3.48;100.00;100222.16;5088105;28;20520;-69
2024/01/14 00:08:12;;;;;;;17.73;4.63;;;;;;;3.48;100.00;100216.94;5088773;28;20120;-67
2024/01/14 00:10:38;;;;;;;15.27;4.78;;;;;;;3.47;100.00;100220.34;5075479;28;20048;-67
2024/01/14 00:13:03;;;;;;;13.30;4.03;;;;;;;3.45;100.00;100216.75;5088643;28;20039;-68
2024/01/14 00:15:29;;;;;;;11.87;3.87;;;;;;;3.50;100.00;100223.16;5079780;28;20173;-67
2024/01/14 00:17:54;;;;;;;10.47;3.90;;;;;;;3.50;100.00;100210.13;5082480;28;20036;-69
2024/01/14 00:20:19;;;;;;;9.90;3.93;;;;;;;3.50;100.00;100198.75;5086433;28;20120;-69
2024/01/14 00:22:45;;;;;;;15.53;4.73;;;;;;;3.51;100.00;100204.06;5080226;28;20036;-68
2024/01/14 00:27:25;;;;;;;8.68;2.90;;;;;;;3.51;100.00;100198.84;5060832;28;20447;-67
2024/01/14 00:29:50;;;;;;;12.67;3.43;;;;;;;3.55;100.00;100208.69;5043646;28;20120;-68
2024/01/14 00:32:15;;;;;;;11.82;3.83;;;;;;;3.54;100.00;100195.53;5022299;28;20049;-69
2024/01/14 00:34:41;;;;;;;11.33;3.67;;;;;;;3.54;100.00;100193.81;5021367;28;20052;-67
2024/01/14 00:37:06;;;;;;;12.13;3.73;;;;;;;3.56;100.00;100201.72;5028057;28;20057;-68
2024/01/14 00:39:36;;;;;;;10.07;2.70;;;;;;;3.54;100.00;100191.22;5019886;28;20042;-67
2024/01/14 00:42:01;;;;;;;12.43;3.72;;;;;;;3.55;100.00;100195.63;5020577;28;20044;-66
2024/01/14 00:44:27;;;;;;;8.93;3.03;;;;;;;3.55;100.00;100189.50;5021105;28;20042;-67
2024/01/14 00:46:52;;;;;;;6.83;2.17;;;;;;;3.54;100.00;100190.31;5019740;28;20042;-68
2024/01/14 00:49:18;;;;;;;10.73;3.33;;;;;;;3.55;100.00;100194.72;5018669;28;20756;-66
2024/01/14 00:51:43;;;;;;;12.73;4.63;;;;;;;3.53;100.00;100180.66;5020355;28;20049;-69
2024/01/14 00:54:08;;;;;;;10.30;2.87;;;;;;;3.52;100.00;100182.38;5023395;28;20036;-68
2024/01/14 00:56:34;;;;;;;11.47;3.23;;;;;;;3.52;100.00;100176.25;5031882;28;20117;-70
2024/01/14 00:58:59;;;;;;;9.60;2.65;;;;;;;3.49;100.00;100176.97;5020040;28;20030;-71
2024/01/14 01:01:24;;;;;;;7.73;2.43;;;;;;;3.47;100.00;100181.19;5021255;28;20447;-67
2024/01/14 01:03:50;;;;;;;5.57;1.20;;;;;;;3.40;100.00;100168.59;5028100;28;20049;-67
2024/01/14 01:06:15;;;;;;;7.27;2.00;;;;;;;3.34;100.00;100176.97;5027971;28;20038;-69
2024/01/14 01:08:41;;;;;;;9.17;1.73;;;;;;;3.28;100.00;100175.69;5020022;28;20069;-67
2024/01/14 01:11:06;;;;;;;7.87;2.07;;;;;;;3.25;100.00;100178.13;5027883;28;20034;-67
2024/01/14 01:13:31;;;;;;;6.67;1.80;;;;;;;3.20;100.00;100174.31;5020146;28;20402;-67
2024/01/14 01:15:57;;;;;;;4.83;1.33;;;;;;;3.15;100.00;100171.44;5019207;28;20049;-68
2024/01/14 01:18:22;;;;;;;5.63;1.70;;;;;;;3.14;100.00;100160.91;5028022;28;20124;-71
2024/01/14 01:20:51;;;;;;;6.37;1.90;;;;;;;3.11;100.00;100166.81;5019400;28;20049;-69
2024/01/14 01:23:16;;;;;;;5.88;1.58;;;;;;;3.10;100.00;100156.31;5027937;28;20072;-68
2024/01/14 01:25:41;;;;;;;7.20;2.33;;;;;;;3.07;100.00;100150.88;5019857;28;20073;-70
2024/01/14 01:28:07;;;;;;;9.43;2.13;;;;;;;3.06;100.00;100149.13;5019587;28;20144;-69
2024/01/14 01:30:32;;;;;;;6.60;1.53;;;;;;;3.07;100.00;100158.72;5026757;28;20045;-70
2024/01/14 01:35:12;;;;;;;10.23;2.28;;;;;;;3.00;100.00;100153.16;5065024;28;20372;-68
2024/01/14 01:37:37;;;;;;;5.43;1.70;;;;;;;2.97;100.00;100139.00;5063961;28;20115;-71
2024/01/14 01:42:15;;;;;;;6.75;1.65;;;;;;;2.94;100.00;100131.91;5060512;28;20370;-71
2024/01/14 01:44:40;;;;;;;6.13;1.97;;;;;;;2.93;100.00;100126.59;5043074;28;20454;-69
2024/01/14 01:47:07;;;;;;;7.82;2.10;;;;;;;2.89;100.00;100130.72;5040235;28;20037;-68
2024/01/14 01:51:50;;;;;;;6.68;2.08;;;;;;;2.89;100.00;100129.81;5080454;27;20367;-73
2024/01/14 01:54:20;;;;;;;4.82;1.42;;;;;;;2.91;100.00;100134.31;5080471;28;20492;-70
2024/01/14 01:56:45;;;;;;;6.43;2.35;;;;;;;2.92;100.00;100120.47;5079765;28;20036;-70
2024/01/14 01:59:12;;;;;;;8.27;2.10;;;;;;;2.91;100.00;100107.34;5080258;28;20032;-68
2024/01/14 02:01:38;;;;;;;8.85;2.22;;;;;;;2.93;100.00;100113.53;5084281;28;20032;-73
2024/01/14 02:04:04;;;;;;;8.48;2.20;;;;;;;2.93;100.00;100109.22;5071992;28;20043;-69
2024/01/14 02:06:31;;;;;;;7.18;2.10;;;;;;;2.93;100.00;100103.09;5080062;28;20032;-70
2024/01/14 02:08:57;;;;;;;6.90;1.97;;;;;;;2.93;100.00;100083.16;5079981;28;20115;-67
2024/01/14 02:11:22;;;;;;;5.50;1.42;;;;;;;2.94;100.00;100098.00;5080028;28;20050;-70
2024/01/14 02:13:48;;;;;;;5.90;1.47;;;;;;;2.94;100.00;100107.53;5080701;28;20542;-69
2024/01/14 02:16:15;;;;;;;5.53;1.60;;;;;;;2.95;100.00;100098.91;5079484;28;20070;-70
2024/01/14 02:18:40;;;;;;;8.90;2.17;;;;;;;2.92;100.00;100088.25;5080082;28;20081;-70
2024/01/14 02:21:08;;;;;;;6.67;1.70;;;;;;;2.91;100.00;100100.41;5080069;28;20476;-69
2024/01/14 02:23:37;;;;;;;6.55;1.70;;;;;;;2.90;100.00;100097.72;5080914;28;20083;-71
2024/01/14 02:26:02;;;;;;;6.18;1.42;;;;;;;2.89;100.00;100099.44;5079762;28;20044;-69
2024/01/14 02:28:28;;;;;;;9.70;1.80;;;;;;;2.89;100.00;100104.63;5080424;28;20519;-68
2024/01/14 02:30:54;;;;;;;7.00;1.77;;;;;;;2.89;100.00;100104.63;5079571;28;20055;-70
2024/01/14 02:33:21;;;;;;;6.97;1.58;;;;;;;2.90;100.00;100102.94;5081831;28;20044;-67
2024/01/14 02:35:46;;;;;;;5.82;1.65;;;;;;;2.88;100.00;100100.22;5079508;28;20511;-68
2024/01/14 02:38:12;;;;;;;7.60;1.50;;;;;;;2.87;100.00;100098.41;5080023;28;20123;-68
2024/01/14 02:40:37;;;;;;;6.70;1.33;;;;;;;2.88;100.00;100088.88;5079602;28;20044;-69
2024/01/14 02:43:03;;;;;;;4.93;1.27;;;;;;;2.87;100.00;100095.81;5079807;28;20131;-69
2024/01/14 02:45:31;;;;;;;6.83;1.37;;;;;;;2.85;100.00;100094.84;5079197;28;20047;-67
2024/01/14 02:47:57;;;;;;;5.60;1.50;;;;;;;2.84;100.00;100086.91;5079436;28;20289;-70
2024/01/14 02:50:22;;;;;;;6.25;1.95;;;;;;;2.84;100.00;100079.09;5078997;28;20044;-69
2024/01/14 02:52:48;;;;;;;7.40;1.83;;;;;;;2.87;100.00;100092.28;5078723;28;20169;-69
2024/01/14 02:55:14;;;;;;;7.00;1.37;;;;;;;2.85;100.00;100084.41;5078648;28;20036;-68
2024/01/14 02:57:39;;;;;;;9.73;1.05;;;;;;;2.83;100.00;100075.56;5080162;28;20078;-66
2024/01/14 03:00:06;;;;;;;7.40;1.50;;;;;;;2.84;100.00;100092.13;5078897;28;20492;-73
2024/01/14 03:02:32;;;;;;;7.03;1.58;;;;;;;2.84;100.00;100082.59;5074198;28;20097;-69
2024/01/14 03:04:58;;;;;;;4.47;1.10;;;;;;;2.84;100.00;100080.00;5067300;28;20040;-68
2024/01/14 03:07:23;;;;;;;4.85;1.55;;;;;;;2.83;100.00;100075.56;5066225;28;20028;-66
2024/01/14 03:09:48;;;;;;;6.63;1.23;;;;;;;2.83;100.00;100069.47;5065404;28;20040;-66
2024/01/14 03:12:14;;;;;;;4.97;0.80;;;;;;;2.77;100.00;100059.56;5066268;28;20120;-68
2024/01/14 03:14:39;;;;;;;5.73;1.20;;;;;;;2.77;100.00;100064.75;5053669;28;20291;-66
2024/01/14 03:17:05;;;;;;;7.57;1.87;;;;;;;2.78;100.00;100069.19;5065653;28;20111;-66
2024/01/14 03:19:30;;;;;;;9.00;1.40;;;;;;;2.79;100.00;100071.00;5065604;28;20198;-69
2024/01/14 03:21:55;;;;;;;4.53;0.83;;;;;;;2.76;100.00;100056.88;5065542;28;20068;-66
2024/01/14 03:24:21;;;;;;;9.70;1.93;;;;;;;2.72;100.00;100071.41;5061331;28;20480;-70
2024/01/14 03:26:46;;;;;;;5.67;1.07;;;;;;;2.72;100.00;100068.81;5065528;28;20390;-69
2024/01/14 03:29:12;;;;;;;5.23;0.70;;;;;;;2.72;100.00;100066.19;5064548;28;20412;-66
2024/01/14 03:31:37;;;;;;;7.63;0.93;;;;;;;2.73;100.00;100062.78;5061875;28;20072;-69
2024/01/14 03:34:02;;;;;;;6.53;1.10;;;;;;;2.74;100.00;100056.78;5056716;28;20028;-68
2024/01/14 03:36:28;;;;;;;4.93;1.33;;;;;;;2.74;100.00;100059.38;5064942;28;20062;-66
2024/01/14 03:38:53;;;;;;;5.73;0.80;;;;;;;2.75;100.00;100055.97;5064828;28;20382;-69
2024/01/14 03:41:18;;;;;;;8.07;1.00;;;;;;;2.75;100.00;100058.59;5065369;28;20040;-67
2024/01/14 03:43:44;;;;;;;3.30;0.60;;;;;;;2.75;100.00;100062.88;5060114;28;20123;-70
2024/01/14 03:46:09;;;;;;;6.40;0.97;;;;;;;2.76;100.00;100051.66;5064905;28;20123;-66
2024/01/14 03:48:35;;;;;;;6.40;0.98;;;;;;;2.71;100.00;100043.56;5065082;28;20032;-68
2024/01/14 03:51:00;;;;;;;8.83;1.07;;;;;;;2.68;100.00;100047.66;5064716;28;20139;-69
2024/01/14 03:53:26;;;;;;;5.13;0.80;;;;;;;2.65;100.00;100042.28;5064600;28;20040;-71
2024/01/14 03:58:06;;;;;;;5.90;1.30;;;;;;;2.59;100.00;100046.31;5060366;28;20423;-70
2024/01/14 04:00:31;;;;;;;9.45;1.00;;;;;;;2.56;100.00;100046.16;5058612;28;20527;-67
2024/01/14 04:02:57;;;;;;;3.97;0.60;;;;;;;2.57;100.00;100049.63;5053033;28;20098;-69
2024/01/14 04:05:23;;;;;;;5.83;0.73;;;;;;;2.54;100.00;100042.53;5049232;28;20146;-66
2024/01/14 04:07:49;;;;;;;11.82;1.20;;;;;;;2.50;100.00;100035.34;5042087;28;20103;-69
2024/01/14 04:10:16;;;;;;;6.50;1.00;;;;;;;2.53;100.00;100050.25;5040444;28;20130;-67
2024/01/14 04:12:41;;;;;;;10.93;1.27;;;;;;;2.52;100.00;100043.22;5040032;28;20116;-70
2024/01/14 04:15:07;;;;;;;9.88;1.20;;;;;;;2.53;100.00;100037.22;5039951;28;20251;-69
2024/01/14 04:17:33;;;;;;;7.85;0.90;;;;;;;2.53;100.00;100047.63;5040210;28;20347;-69
2024/01/14 04:19:59;;;;;;;8.60;1.00;;;;;;;2.53;100.00;100051.16;5048178;28;20045;-65
2024/01/14 04:22:25;;;;;;;6.70;0.65;;;;;;;2.54;100.00;100052.06;5040125;28;20033;-67
2024/01/14 04:24:50;;;;;;;8.07;1.10;;;;;;;2.54;100.00;100042.53;5041200;28;20117;-71
2024/01/14 04:27:15;;;;;;;8.33;1.33;;;;;;;2.57;100.00;100039.19;5035512;28;20118;-68
2024/01/14 04:29:41;;;;;;;13.10;1.10;;;;;;;2.59;100.00;100040.19;5039575;28;20059;-66
2024/01/14 04:32:06;;;;;;;10.32;1.10;;;;;;;2.58;100.00;100047.13;5042046;28;20033;-72
2024/01/14 04:34:32;;;;;;;4.47;0.70;;;;;;;2.58;100.00;100046.22;5040138;28;20075;-67
2024/01/14 04:36:58;;;;;;;7.90;1.30;;;;;;;2.57;100.00;100060.03;5045718;28;20029;-67
2024/01/14 04:39:24;;;;;;;8.23;0.83;;;;;;;2.60;100.00;100058.56;5039281;28;20036;-70
2024/01/14 04:41:49;;;;;;;5.38;1.00;;;;;;;2.61;100.00;100056.84;5039865;28;20025;-73
2024/01/14 04:44:14;;;;;;;7.63;1.13;;;;;;;2.64;100.00;100059.63;5039367;28;20116;-70
2024/01/14 04:46:42;;;;;;;9.87;0.80;;;;;;;2.67;100.00;100059.81;5039407;28;20120;-67
2024/01/14 04:49:08;;;;;;;17.17;1.10;;;;;;;2.68;100.00;100061.59;5039431;28;20033;-71
2024/01/14 04:51:34;;;;;;;4.63;0.97;;;;;;;2.75;100.00;100061.19;5039067;28;20124;-66
2024/01/14 04:54:00;;;;;;;10.07;1.20;;;;;;;3.07;100.00;100059.59;5039635;28;20111;-64
2024/01/14 04:56:25;;;;;;;8.33;1.10;;;;;;;2.99;100.00;100057.44;5037570;28;20047;-69
2024/01/14 04:58:50;;;;;;;5.77;1.10;;;;;;;2.94;100.00;100060.56;5038983;28;20436;-67
2024/01/14 05:01:16;;;;;;;7.30;1.20;;;;;;;2.88;100.00;100053.28;5043475;28;20291;-68
2024/01/14 05:03:43;;;;;;;8.50;0.90;;;;;;;2.85;100.00;100053.13;5036793;28;20040;-68
2024/01/14 05:06:08;;;;;;;7.63;1.10;;;;;;;2.82;100.00;100055.50;5039046;28;20037;-67
2024/01/14 05:08:34;;;;;;;9.83;0.93;;;;;;;2.82;100.00;100060.72;5031068;28;20083;-68
2024/01/14 05:10:59;;;;;;;5.93;1.10;;;;;;;2.83;100.00;100062.53;5025748;28;20037;-67
2024/01/14 05:13:24;;;;;;;9.32;1.10;;;;;;;2.84;100.00;100055.63;5025650;28;20048;-68
2024/01/14 05:15:50;;;;;;;8.47;1.07;;;;;;;2.84;100.00;100064.34;5025212;28;20444;-69
2024/01/14 05:18:15;;;;;;;7.47;1.07;;;;;;;2.84;100.00;100061.75;5026542;28;20057;-68
2024/01/14 05:20:41;;;;;;;12.17;1.40;;;;;;;2.85;100.00;100060.03;5025564;28;20037;-66
2024/01/14 05:23:08;;;;;;;7.65;1.45;;;;;;;2.85;100.00;100066.16;5025877;28;20048;-69
2024/01/14 05:25:33;;;;;;;9.48;1.30;;;;;;;2.87;100.00;100054.09;5026279;28;20244;-65
2024/01/14 05:27:59;;;;;;;10.77;1.23;;;;;;;2.88;100.00;100057.59;5024528;28;20037;-67
2024/01/14 05:30:24;;;;;;;5.57;1.00;;;;;;;2.88;100.00;100063.72;5025531;28;20124;-70
2024/01/14 05:35:07;;;;;;;12.25;1.13;;;;;;;2.89;100.00;100069.84;5081208;27;20871;-67
2024/01/14 05:37:32;;;;;;;9.87;1.43;;;;;;;2.88;100.00;100066.31;5081126;28;20047;-71
2024/01/14 05:39:57;;;;;;;9.33;1.33;;;;;;;2.89;100.00;100049.88;5081094;28;20398;-68
2024/01/14 05:42:23;;;;;;;7.17;0.90;;;;;;;2.89;100.00;100054.19;5080905;28;20115;-68
2024/01/14 05:44:48;;;;;;;6.73;1.10;;;;;;;2.89;100.00;100060.31;5080511;28;20127;-71
2024/01/14 05:47:14;;;;;;;10.50;1.97;;;;;;;2.90;100.00;100045.56;5080976;28;20036;-67
2024/01/14 05:49:39;;;;;;;8.67;1.13;;;;;;;2.91;100.00;100055.19;5080371;28;20123;-75
2024/01/14 05:52:05;;;;;;;5.90;1.53;;;;;;;2.90;100.00;100059.50;5080758;28;20953;-69
2024/01/14 05:54:30;;;;;;;7.27;0.90;;;;;;;2.90;100.00;100056.00;5080820;28;20051;-66
2024/01/14 05:56:57;;;;;;;6.97;1.20;;;;;;;2.91;100.00;100049.97;5080637;28;20036;-68
2024/01/14 05:59:23;;;;;;;9.55;1.55;;;;;;;2.92;100.00;100057.88;5080199;28;20554;-69
2024/01/14 06:01:48;;;;;;;10.95;1.00;;;;;;;2.93;100.00;100054.47;5084929;28;20040;-70
2024/01/14 06:06:35;;;;;;;7.18;0.75;;;;;;;2.91;100.00;100053.44;5101066;27;20431;-68
2024/01/14 06:09:00;;;;;;;5.77;0.93;;;;;;;2.92;100.00;100057.88;5109488;28;20582;-72
2024/01/14 06:11:26;;;;;;;5.25;0.80;;;;;;;2.92;100.00;100049.13;5086692;28;20123;-66
2024/01/14 06:13:51;;;;;;;11.67;0.90;;;;;;;2.90;100.00;100043.84;5090820;28;20503;-67
2024/01/14 06:16:16;;;;;;;6.03;1.10;;;;;;;2.91;100.00;100040.41;5087189;28;20158;-70
2024/01/14 06:23:22;;;;;;;5.68;0.70;;;;;;;2.92;100.00;100042.22;5080963;27;20368;-67
2024/01/14 06:25:47;;;;;;;5.60;0.70;;;;;;;2.94;100.00;100044.94;5080872;28;20040;-72
2024/01/14 06:28:13;;;;;;;6.90;0.70;;;;;;;2.93;100.00;100051.84;5081395;28;20070;-66
2024/01/14 06:30:38;;;;;;;4.10;0.73;;;;;;;2.93;100.00;100051.84;5081182;28;20131;-66
2024/01/14 06:33:04;;;;;;;5.20;1.00;;;;;;;2.93;100.00;100041.41;5083086;28;20139;-70
2024/01/14 06:35:29;;;;;;;5.65;0.75;;;;;;;2.94;100.00;100047.53;5080373;28;20033;-69
2024/01/14 06:37:54;;;;;;;8.70;0.93;;;;;;;2.89;100.00;100044.66;5080797;28;20127;-69
2024/01/14 06:40:20;;;;;;;8.20;1.33;;;;;;;2.88;100.00;100047.16;5081297;28;20120;-69
2024/01/14 06:42:45;;;;;;;8.23;1.00;;;;;;;2.86;100.00;100047.06;5081188;28;20033;-70
2024/01/14 06:45:13;;;;;;;4.97;0.70;;;;;;;2.85;100.00;100047.91;5080326;28;20839;-69
2024/01/14 06:47:38;;;;;;;5.55;0.95;;;;;;;2.85;100.00;100041.78;5080860;28;20432;-67
2024/01/14 06:50:04;;;;;;;8.57;1.00;;;;;;;2.82;100.00;100042.47;5079776;28;20107;-69
2024/01/14 06:54:46;;;;;;;4.75;0.85;;;;;;;2.82;100.00;100041.56;5100416;27;20367;-65
2024/01/14 06:57:12;;;;;;;7.90;0.90;;;;;;;2.82;100.00;100047.69;5100949;28;20119;-66
2024/01/14 06:59:39;;;;;;;10.88;0.93;;;;;;;2.81;100.00;100047.63;5096025;28;20544;-66
2024/01/14 07:02:05;;;;;;;8.40;1.20;;;;;;;2.82;100.00;100052.00;5085283;28;20127;-71
2024/01/14 07:04:30;;;;;;;6.28;0.90;;;;;;;2.84;100.00;100048.69;5081603;28;20051;-66
2024/01/14 07:06:55;;;;;;;4.87;0.77;;;;;;;2.85;100.00;100049.59;5080303;28;20040;-70
2024/01/14 07:09:21;;;;;;;4.13;0.43;;;;;;;2.85;100.00;100045.28;5080391;28;20127;-66
2024/01/14 07:11:46;;;;;;;11.07;1.17;;;;;;;2.85;100.00;100041.78;5080465;28;20044;-65
2024/01/14 07:14:11;;;;;;;10.43;1.77;;;;;;;2.83;100.00;100041.69;5078709;28;20419;-71
2024/01/14 07:16:37;;;;;;;6.67;0.80;;;;;;;2.84;100.00;100040.88;5073998;28;20128;-66
2024/01/14 07:19:02;;;;;;;10.03;1.00;;;;;;;2.85;100.00;100042.69;5059688;28;20090;-64
2024/01/14 07:21:28;;;;;;;6.77;1.00;;;;;;;2.85;100.00;100039.16;5068849;28;20043;-68
2024/01/14 07:23:53;;;;;;;7.80;1.15;;;;;;;2.84;100.00;100042.59;5082594;28;20495;-66
2024/01/14 07:26:19;;;;;;;9.27;1.47;;;;;;;2.85;100.00;100036.56;5077444;28;20170;-65
2024/01/14 07:28:44;;;;;;;4.53;0.70;;;;;;;2.84;100.00;100040.88;5070407;28;20032;-67
2024/01/14 07:31:12;;;;;;;3.43;0.73;;;;;;;2.85;100.00;100034.84;5092268;28;20493;-65
2024/01/14 07:33:38;;;;;;;7.53;0.90;;;;;;;2.83;100.00;100038.16;5075182;28;20028;-70
2024/01/14 07:36:03;;;;;;;8.67;1.00;;;;;;;2.83;100.00;100041.69;5082239;28;20097;-67
2024/01/14 07:38:28;;;;;;;6.05;0.88;;;;;;;2.85;100.00;100047.91;5067478;28;20515;-68
2024/01/14 07:40:54;;;;;;;5.13;0.97;;;;;;;2.86;100.00;100043.59;5078987;28;20048;-69
2024/01/14 07:43:19;;;;;;;5.17;0.90;;;;;;;2.87;100.00;100048.88;5074064;28;20024;-66
2024/01/14 07:45:45;;;;;;;8.43;1.07;;;;;;;2.89;100.00;100048.97;5075339;28;20028;-71
2024/01/14 07:48:10;;;;;;;4.47;0.70;;;;;;;2.90;100.00;100056.91;5081356;28;20033;-69
2024/01/14 07:50:35;;;;;;;6.03;0.80;;;;;;;2.92;100.00;100052.66;5080164;28;20119;-65
2024/01/14 07:53:01;;;;;;;5.63;0.60;;;;;;;2.92;100.00;100044.81;5072452;28;20028;-70
2024/01/14 07:55:26;;;;;;;4.50;0.77;;;;;;;2.94;100.00;100057.97;5071853;28;20060;-68
2024/01/14 07:57:52;;;;;;;7.20;1.35;;;;;;;2.95;100.00;100052.84;5077611;28;20930;-68
2024/01/14 08:00:17;;;;;;;13.27;1.17;;;;;;;2.98;100.00;100054.72;5080086;28;20032;-65
2024/01/14 08:02:42;;;;;;;6.90;1.07;;;;;;;3.00;100.00;100053.13;5082458;28;20024;-69
2024/01/14 08:05:09;;;;;;;4.93;0.80;;;;;;;3.00;100.00;100059.25;5071804;28;20545;-68
2024/01/14 08:07:34;;;;;;;5.47;0.60;;;;;;;3.05;100.00;100051.69;5065830;28;20039;-67
2024/01/14 08:10:00;;;;;;;5.60;0.87;;;;;;;3.06;100.00;100057.81;5065672;28;20036;-67
2024/01/14 08:12:25;;;;;;;7.93;1.20;;;;;;;3.07;100.00;100062.19;5065077;28;20052;-68
2024/01/14 08:14:50;;;;;;;7.95;1.38;;;;;;;3.09;100.00;100060.59;5071523;28;20036;-68
2024/01/14 08:17:16;;;;;;;6.10;0.63;;;;;;;3.10;100.00;100046.75;5055373;28;20060;-69
2024/01/14 08:19:41;;;;;;;5.97;0.80;;;;;;;3.15;100.00;100054.03;5047784;28;20421;-67
2024/01/14 08:22:07;;;;;;;4.53;1.10;;;;;;;3.18;100.00;100043.75;5068365;28;20394;-70
2024/01/14 08:24:33;;;;;;;8.05;1.40;;;;;;;3.22;100.00;100055.28;5052694;28;20032;-70
2024/01/14 08:26:59;;;;;;;3.33;0.63;;;;;;;3.22;100.00;100044.84;5046085;28;20037;-65
2024/01/14 08:29:24;;;;;;;7.45;0.65;;;;;;;3.25;100.00;100047.66;5052884;28;20476;-66
2024/01/14 08:34:15;;;;;;;5.00;1.00;;;;;;;3.27;100.00;100038.19;5102238;27;20390;-70
2024/01/14 08:36:40;;;;;;;4.60;0.80;;;;;;;3.29;100.00;100044.41;5100912;28;20048;-75
2024/01/14 08:39:05;;;;;;;8.82;0.70;;;;;;;3.34;100.00;100045.56;5101967;28;20535;-66
2024/01/14 08:41:31;;;;;;;4.77;0.77;;;;;;;3.40;100.00;100045.94;5094088;28;20044;-71
2024/01/14 08:43:59;;;;;;;5.17;0.93;;;;;;;3.47;100.00;100051.56;5096965;28;20594;-67
2024/01/14 08:46:24;;;;;;;9.48;0.95;;;;;;;3.49;100.00;100041.22;5096423;28;20044;-69
2024/01/14 08:48:49;;;;;;;4.70;0.80;;;;;;;3.54;100.00;100039.78;5094005;28;20557;-69
2024/01/14 08:51:15;;;;;;;11.43;0.90;;;;;;;3.57;100.00;100045.16;5087422;28;20037;-68
2024/01/14 08:53:40;;;;;;;8.30;0.80;;;;;;;3.59;100.00;100045.25;5089513;28;20138;-70
2024/01/14 08:56:06;;;;;;;6.57;0.70;;;;;;;3.60;100.00;100054.91;5081606;28;20043;-70
2024/01/14 08:58:31;;;;;;;8.03;0.80;;;;;;;3.58;100.00;100049.59;5089102;28;20040;-66
2024/01/14 09:00:57;;;;;;;4.18;0.60;;;;;;;3.61;100.00;100054.06;5092806;28;20036;-72
2024/01/14 09:03:22;;;;;;;8.80;1.17;;;;;;;3.62;100.00;100048.94;5088115;28;20484;-65
2024/01/14 09:05:48;;;;;;;4.03;0.67;;;;;;;3.62;100.00;100043.72;5098491;28;20043;-72
2024/01/14 09:08:13;;;;;;;4.77;0.73;;;;;;;3.65;100.00;100054.31;5094845;28;20036;-70
2024/01/14 09:10:39;;;;;;;3.90;0.98;;;;;;;3.71;100.00;100043.31;5092255;28;20036;-66
2024/01/14 09:13:05;;;;;;;6.07;0.90;;;;;;;3.77;100.00;100044.59;5100796;28;20509;-72
2024/01/14 09:15:30;;;;;;;4.57;0.75;;;;;;;3.79;100.00;100053.41;5092944;28;20527;-66
2024/01/14 09:17:56;;;;;;;5.60;0.60;;;;;;;3.82;100.00;100048.34;5092329;28;20131;-68
2024/01/14 09:20:21;;;;;;;5.40;0.77;;;;;;;3.89;100.00;100050.50;5099714;27;20055;-66
2024/01/14 09:22:46;;;;;;;10.57;0.98;;;;;;;3.91;100.00;100061.94;5100747;28;20050;-71
2024/01/14 09:25:12;;;;;;;8.20;0.83;;;;;;;3.84;100.00;100065.03;5088631;28;20110;-66
2024/01/14 09:27:37;;;;;;;5.77;0.90;;;;;;;3.85;100.00;100065.91;5092562;28;20051;-67
2024/01/14 09:30:03;;;;;;;7.37;0.77;;;;;;;3.85;100.00;100063.28;5080652;28;20123;-67
2024/01/14 09:32:28;;;;;;;9.18;1.00;;;;;;;3.87;100.00;100056.44;5090687;28;20036;-71
2024/01/14 09:34:55;;;;;;;8.37;1.30;;;;;;;3.87;100.00;100074.72;5080571;28;20071;-67
2024/01/14 09:37:20;;;;;;;6.95;0.98;;;;;;;3.85;100.00;100065.91;5096506;28;20507;-68
2024/01/14 09:39:46;;;;;;;2.97;0.47;;;;;;;3.82;100.00;100068.34;5105517;28;20040;-70
2024/01/14 09:42:22;;;;;;;8.15;1.30;;;;;;;3.79;100.00;100066.47;5096593;28;20044;-65
2024/01/14 09:44:48;;;;;;;5.07;0.70;;;;;;;3.78;100.00;100069.91;5096916;28;20035;-65
2024/01/14 09:47:16;;;;;;;4.82;0.73;;;;;;;3.80;100.00;100068.25;5092938;28;20035;-65
2024/01/14 09:49:42;;;;;;;5.90;0.82;;;;;;;3.86;100.00;100068.59;5091056;28;20036;-65
2024/01/14 09:52:10;;;;;;;9.02;1.65;;;;;;;3.88;100.00;100061.75;5086319;28;20044;-63
2024/01/14 09:54:36;;;;;;;3.67;1.13;;;;;;;3.88;100.00;100064.38;5084785;28;20055;-66
2024/01/14 09:57:05;;;;;;;5.18;0.90;;;;;;;3.86;100.00;100055.53;5085651;28;20587;-70
2024/01/14 09:59:34;;;;;;;6.00;0.83;;;;;;;3.87;100.00;100057.34;5075789;28;20358;-65
2024/01/14 10:01:59;;;;;;;7.70;1.00;;;;;;;3.90;100.00;100052.28;5078547;28;20066;-64
2024/01/14 10:04:27;;;;;;;7.13;1.33;;;;;;;3.92;100.00;100055.91;5065844;28;20496;-67
2024/01/14 10:06:54;;;;;;;3.72;0.80;;;;;;;4.02;100.00;100054.69;5084643;28;20448;-68
2024/01/14 10:09:22;;;;;;;12.40;1.17;;;;;;;4.05;100.00;100053.94;5084923;28;20039;-66
2024/01/14 10:11:48;;;;;;;5.72;0.98;;;;;;;4.09;100.00;100050.72;5083786;28;20082;-65
2024/01/14 10:14:15;;;;;;;11.60;0.90;;;;;;;4.08;100.00;100036.75;5087569;28;20033;-65
2024/01/14 10:16:40;;;;;;;6.10;0.70;;;;;;;4.07;100.00;100042.78;5065824;28;20471;-73
2024/01/14 10:19:06;;;;;;;4.53;0.90;;;;;;;4.07;100.00;100041.88;5074526;28;20111;-63
2024/01/14 10:21:32;;;;;;;6.43;1.00;;;;;;;4.12;100.00;100030.88;5074164;28;20291;-69
2024/01/14 10:23:59;;;;;;;5.50;1.20;;;;;;;4.21;100.00;100027.84;5069761;28;20025;-64
2024/01/14 10:26:25;;;;;;;7.82;0.70;;;;;;;4.29;100.00;100026.56;5079829;28;20040;-67
2024/01/14 10:28:50;;;;;;;4.13;0.83;;;;;;;4.38;100.00;100027.06;5075572;28;20149;-64
2024/01/14 10:33:32;;;;;;;6.45;1.00;;;;;;;4.63;100.00;100026.66;5062726;28;20361;-67
2024/01/14 10:35:58;;;;;;;5.53;1.08;;;;;;;4.86;100.00;100025.22;5041369;28;20423;-64
2024/01/14 10:38:23;;;;;;;7.10;1.87;;;;;;;4.93;100.00;100027.34;5052615;28;20045;-70
2024/01/14 10:40:48;;;;;;;9.52;1.13;;;;;;;4.85;100.00;100021.69;5049772;28;20047;-69
2024/01/14 10:43:14;;;;;;;10.70;1.07;;;;;;;4.75;100.00;100019.44;5045444;28;20162;-65
2024/01/14 10:45:39;;;;;;;11.67;1.40;;;;;;;4.73;100.00;100016.75;5044234;28;20115;-70
2024/01/14 10:48:10;;;;;;;7.17;1.03;;;;;;;4.79;100.00;100018.75;5039966;28;20037;-70
2024/01/14 10:50:36;;;;;;;6.85;0.88;;;;;;;4.75;100.00;100019.44;5056254;28;20044;-69
2024/01/14 10:53:07;;;;;;;7.05;1.05;;;;;;;4.74;100.00;100008.06;5042130;28;20421;-64
2024/01/14 10:55:48;;;;;;;5.30;1.23;;;;;;;4.91;100.00;100010.66;5041715;28;20045;-71
2024/01/14 10:58:41;;;;;;;5.80;1.00;;;;;;;4.94;100.00;100011.69;5048548;28;20029;-73
2024/01/14 11:01:11;;;;;;;6.63;0.93;;;;;;;4.88;100.00;100014.03;5045114;28;20056;-65
2024/01/14 11:03:38;;;;;;;2.72;0.70;;;;;;;4.76;100.00;100009.06;5039891;28;20531;-66
2024/01/14 11:08:21;;;;;;;11.60;1.17;;;;;;;4.68;99.86;100010.38;5102239;27;20862;-65
2024/01/14 11:10:49;;;;;;;8.00;0.80;;;;;;;4.67;100.00;100010.28;5088365;28;20132;-77
2024/01/14 11:13:38;;;;;;;6.47;1.00;;;;;;;4.66;100.00;100006.78;5083672;28;20479;-63
2024/01/14 11:16:16;;;;;;;6.45;1.33;;;;;;;4.70;100.00;100010.44;5072594;28;20040;-64
2024/01/14 11:18:56;;;;;;;7.43;1.07;;;;;;;4.66;99.85;100001.53;5082087;28;20412;-68
2024/01/14 11:21:45;;;;;;;5.05;0.90;;;;;;;4.61;99.21;100007.34;5082194;28;20051;-65
2024/01/14 11:24:11;;;;;;;5.45;0.90;;;;;;;4.59;98.95;100004.63;5075020;28;20412;-65
2024/01/14 11:26:36;;;;;;;7.27;1.43;;;;;;;4.60;99.24;99996.00;5080406;28;20040;-70
2024/01/14 11:29:04;;;;;;;5.10;0.90;;;;;;;4.63;99.43;99988.31;5081870;28;20063;-66
2024/01/14 11:32:05;;;;;;;5.50;1.10;;;;;;;4.61;99.27;99989.94;5081321;28;20278;-68
2024/01/14 11:34:50;;;;;;;4.15;0.90;;;;;;;4.57;99.31;99989.72;5078966;28;20169;-64
2024/01/14 11:37:34;;;;;;;6.05;0.93;;;;;;;4.57;100.00;99984.47;5080549;28;20059;-66
2024/01/14 11:40:06;;;;;;;6.55;1.20;;;;;;;4.59;100.00;99975.88;5078698;28;21110;-71
2024/01/14 11:42:32;;;;;;;5.60;0.90;;;;;;;4.61;100.00;99974.25;5080993;28;20105;-70
2024/01/14 11:45:00;;;;;;;6.33;1.00;;;;;;;4.58;100.00;99979.34;5080830;28;20048;-68
2024/01/14 11:47:45;;;;;;;7.13;0.95;;;;;;;4.60;100.00;99972.44;5082966;28;20112;-64
2024/01/14 11:50:11;;;;;;;4.38;1.20;;;;;;;4.68;100.00;99965.00;5073766;28;20496;-65